sensor_id;sensor_type;location;lat;lon;timestamp;P1;durP1;ratioP1;P2;durP2;ratioP2
69502;SDS011;56704;54.242;12.442;2022-12-26T00:01:35;18.70;;;6.60;;
69502;SDS011;56704;54.242;12.442;2022-12-26T00:04:03;14.00;;;4.95;;
69502;SDS011;56704;54.242;12.442;2022-12-26T00:06:31;16.17;;;6.25;;
69502;SDS011;56704;54.242;12.442;2022-12-26T00:08:59;16.20;;;5.18;;
69502;SDS011;56704;54.242;12.442;2022-12-26T00:11:27;16.07;;;5.57;;
69502;SDS011;56704;54.242;12.442;2022-12-26T00:13:54;15.43;;;5.40;;
69502;SDS011;56704;54.242;12.442;2022-12-26T00:16:22;17.55;;;5.90;;
69502;SDS011;56704;54.242;12.442;2022-12-26T00:18:49;15.88;;;5.63;;
69502;SDS011;56704;54.242;12.442;2022-12-26T00:21:16;19.35;;;7.03;;
69502;SDS011;56704;54.242;12.442;2022-12-26T00:23:48;23.20;;;7.70;;
69502;SDS011;56704;54.242;12.442;2022-12-26T00:26:15;19.70;;;7.05;;
69502;SDS011;56704;54.242;12.442;2022-12-26T00:28:43;18.95;;;7.03;;
69502;SDS011;56704;54.242;12.442;2022-12-26T00:31:11;23.65;;;8.77;;
69502;SDS011;56704;54.242;12.442;2022-12-26T00:33:39;22.40;;;7.60;;
69502;SDS011;56704;54.242;12.442;2022-12-26T00:36:07;21.70;;;7.10;;
69502;SDS011;56704;54.242;12.442;2022-12-26T00:38:35;21.25;;;7.15;;
69502;SDS011;56704;54.242;12.442;2022-12-26T00:41:04;17.33;;;6.35;;
69502;SDS011;56704;54.242;12.442;2022-12-26T00:43:31;17.52;;;6.47;;
69502;SDS011;56704;54.242;12.442;2022-12-26T00:45:58;17.15;;;6.80;;
69502;SDS011;56704;54.242;12.442;2022-12-26T00:48:25;17.47;;;7.07;;
69502;SDS011;56704;54.242;12.442;2022-12-26T00:50:52;17.35;;;6.13;;
69502;SDS011;56704;54.242;12.442;2022-12-26T00:53:18;14.45;;;6.00;;
69502;SDS011;56704;54.242;12.442;2022-12-26T00:55:45;14.05;;;5.57;;
69502;SDS011;56704;54.242;12.442;2022-12-26T00:58:14;15.85;;;5.78;;
69502;SDS011;56704;54.242;12.442;2022-12-26T01:00:40;15.43;;;5.63;;
69502;SDS011;56704;54.242;12.442;2022-12-26T01:03:07;15.63;;;5.72;;
69502;SDS011;56704;54.242;12.442;2022-12-26T01:05:34;14.20;;;5.63;;
69502;SDS011;56704;54.242;12.442;2022-12-26T01:08:01;13.50;;;5.35;;
69502;SDS011;56704;54.242;12.442;2022-12-26T01:10:27;15.10;;;5.53;;
69502;SDS011;56704;54.242;12.442;2022-12-26T01:12:54;14.30;;;5.77;;
69502;SDS011;56704;54.242;12.442;2022-12-26T01:15:22;15.77;;;5.88;;
69502;SDS011;56704;54.242;12.442;2022-12-26T01:17:49;14.68;;;5.70;;
69502;SDS011;56704;54.242;12.442;2022-12-26T01:20:15;14.13;;;5.57;;
69502;SDS011;56704;54.242;12.442;2022-12-26T01:22:42;12.23;;;4.82;;
69502;SDS011;56704;54.242;12.442;2022-12-26T01:25:09;14.13;;;4.90;;
69502;SDS011;56704;54.242;12.442;2022-12-26T01:27:36;13.70;;;5.45;;
69502;SDS011;56704;54.242;12.442;2022-12-26T01:30:03;14.38;;;5.50;;
69502;SDS011;56704;54.242;12.442;2022-12-26T01:32:32;12.23;;;4.80;;
69502;SDS011;56704;54.242;12.442;2022-12-26T01:34:59;14.38;;;4.68;;
69502;SDS011;56704;54.242;12.442;2022-12-26T01:37:25;15.30;;;5.70;;
69502;SDS011;56704;54.242;12.442;2022-12-26T01:39:52;13.13;;;4.82;;
69502;SDS011;56704;54.242;12.442;2022-12-26T01:42:19;15.98;;;5.30;;
69502;SDS011;56704;54.242;12.442;2022-12-26T01:44:53;13.82;;;5.68;;
69502;SDS011;56704;54.242;12.442;2022-12-26T01:47:24;19.25;;;6.05;;
69502;SDS011;56704;54.242;12.442;2022-12-26T01:50:13;14.53;;;5.43;;
69502;SDS011;56704;54.242;12.442;2022-12-26T01:52:49;15.00;;;4.53;;
69502;SDS011;56704;54.242;12.442;2022-12-26T01:55:17;16.80;;;5.75;;
69502;SDS011;56704;54.242;12.442;2022-12-26T01:57:49;19.67;;;6.28;;
69502;SDS011;56704;54.242;12.442;2022-12-26T02:00:20;16.55;;;5.60;;
69502;SDS011;56704;54.242;12.442;2022-12-26T02:02:46;19.77;;;5.83;;
69502;SDS011;56704;54.242;12.442;2022-12-26T02:05:33;18.77;;;5.18;;
69502;SDS011;56704;54.242;12.442;2022-12-26T02:08:00;17.80;;;4.93;;
69502;SDS011;56704;54.242;12.442;2022-12-26T02:10:30;17.25;;;5.15;;
69502;SDS011;56704;54.242;12.442;2022-12-26T02:13:00;15.82;;;5.28;;
69502;SDS011;56704;54.242;12.442;2022-12-26T02:15:27;14.07;;;3.70;;
69502;SDS011;56704;54.242;12.442;2022-12-26T02:17:55;21.00;;;5.10;;
69502;SDS011;56704;54.242;12.442;2022-12-26T02:20:22;34.10;;;7.38;;
69502;SDS011;56704;54.242;12.442;2022-12-26T02:23:02;23.80;;;7.38;;
69502;SDS011;56704;54.242;12.442;2022-12-26T02:26:04;25.65;;;6.60;;
69502;SDS011;56704;54.242;12.442;2022-12-26T02:31:51;19.35;;;5.38;;
69502;SDS011;56704;54.242;12.442;2022-12-26T02:34:23;19.63;;;5.40;;
69502;SDS011;56704;54.242;12.442;2022-12-26T02:37:11;20.73;;;5.97;;
69502;SDS011;56704;54.242;12.442;2022-12-26T02:39:55;20.75;;;5.53;;
69502;SDS011;56704;54.242;12.442;2022-12-26T02:42:34;24.67;;;4.83;;
69502;SDS011;56704;54.242;12.442;2022-12-26T02:45:09;24.05;;;6.88;;
69502;SDS011;56704;54.242;12.442;2022-12-26T02:48:04;10.30;;;2.80;;
69502;SDS011;56704;54.242;12.442;2022-12-26T02:50:37;12.73;;;4.25;;
69502;SDS011;56704;54.242;12.442;2022-12-26T02:53:32;19.35;;;5.70;;
69502;SDS011;56704;54.242;12.442;2022-12-26T02:56:26;12.07;;;3.47;;
69502;SDS011;56704;54.242;12.442;2022-12-26T02:59:16;18.05;;;4.68;;
69502;SDS011;56704;54.242;12.442;2022-12-26T03:02:05;20.05;;;5.28;;
69502;SDS011;56704;54.242;12.442;2022-12-26T03:04:56;18.85;;;4.32;;
69502;SDS011;56704;54.242;12.442;2022-12-26T03:07:41;15.13;;;4.82;;
69502;SDS011;56704;54.242;12.442;2022-12-26T03:10:27;11.70;;;3.83;;
69502;SDS011;56704;54.242;12.442;2022-12-26T03:13:16;9.30;;;3.20;;
69502;SDS011;56704;54.242;12.442;2022-12-26T03:15:48;13.27;;;4.20;;
69502;SDS011;56704;54.242;12.442;2022-12-26T03:18:37;21.00;;;3.78;;
69502;SDS011;56704;54.242;12.442;2022-12-26T03:21:08;12.93;;;4.10;;
69502;SDS011;56704;54.242;12.442;2022-12-26T03:23:38;12.83;;;4.27;;
69502;SDS011;56704;54.242;12.442;2022-12-26T03:26:08;17.25;;;3.35;;
69502;SDS011;56704;54.242;12.442;2022-12-26T03:28:55;13.70;;;3.78;;
69502;SDS011;56704;54.242;12.442;2022-12-26T03:31:42;23.02;;;5.60;;
69502;SDS011;56704;54.242;12.442;2022-12-26T03:34:08;13.40;;;3.50;;
69502;SDS011;56704;54.242;12.442;2022-12-26T03:36:48;21.60;;;4.80;;
69502;SDS011;56704;54.242;12.442;2022-12-26T03:39:24;18.65;;;4.30;;
69502;SDS011;56704;54.242;12.442;2022-12-26T03:42:16;23.75;;;5.10;;
69502;SDS011;56704;54.242;12.442;2022-12-26T03:45:13;6.63;;;1.93;;
69502;SDS011;56704;54.242;12.442;2022-12-26T03:48:24;14.75;;;4.65;;
69502;SDS011;56704;54.242;12.442;2022-12-26T03:51:14;15.00;;;4.15;;
69502;SDS011;56704;54.242;12.442;2022-12-26T03:54:07;17.70;;;4.60;;
69502;SDS011;56704;54.242;12.442;2022-12-26T03:56:57;23.30;;;6.00;;
69502;SDS011;56704;54.242;12.442;2022-12-26T03:59:46;18.57;;;4.67;;
69502;SDS011;56704;54.242;12.442;2022-12-26T04:02:46;22.10;;;5.18;;
69502;SDS011;56704;54.242;12.442;2022-12-26T04:05:31;17.38;;;4.57;;
69502;SDS011;56704;54.242;12.442;2022-12-26T04:08:18;11.38;;;3.92;;
69502;SDS011;56704;54.242;12.442;2022-12-26T04:11:08;11.10;;;2.85;;
69502;SDS011;56704;54.242;12.442;2022-12-26T04:13:57;13.70;;;4.10;;
69502;SDS011;56704;54.242;12.442;2022-12-26T04:16:47;15.80;;;3.72;;
69502;SDS011;56704;54.242;12.442;2022-12-26T04:19:40;13.52;;;3.10;;
69502;SDS011;56704;54.242;12.442;2022-12-26T04:22:19;11.60;;;2.97;;
69502;SDS011;56704;54.242;12.442;2022-12-26T04:25:07;13.60;;;2.45;;
69502;SDS011;56704;54.242;12.442;2022-12-26T04:27:57;12.20;;;2.07;;
69502;SDS011;56704;54.242;12.442;2022-12-26T04:30:41;15.32;;;3.47;;
69502;SDS011;56704;54.242;12.442;2022-12-26T04:33:34;10.75;;;2.17;;
69502;SDS011;56704;54.242;12.442;2022-12-26T04:36:25;10.93;;;2.47;;
69502;SDS011;56704;54.242;12.442;2022-12-26T04:39:12;14.35;;;3.17;;
69502;SDS011;56704;54.242;12.442;2022-12-26T04:42:00;8.63;;;2.70;;
69502;SDS011;56704;54.242;12.442;2022-12-26T04:44:47;15.13;;;3.85;;
69502;SDS011;56704;54.242;12.442;2022-12-26T04:47:15;7.43;;;2.15;;
69502;SDS011;56704;54.242;12.442;2022-12-26T04:49:42;9.98;;;1.83;;
69502;SDS011;56704;54.242;12.442;2022-12-26T04:52:27;8.80;;;2.53;;
69502;SDS011;56704;54.242;12.442;2022-12-26T04:55:14;19.70;;;4.07;;
69502;SDS011;56704;54.242;12.442;2022-12-26T04:57:41;7.65;;;2.13;;
69502;SDS011;56704;54.242;12.442;2022-12-26T05:00:10;18.10;;;3.67;;
69502;SDS011;56704;54.242;12.442;2022-12-26T05:02:37;18.13;;;3.58;;
69502;SDS011;56704;54.242;12.442;2022-12-26T05:05:21;7.57;;;2.10;;
69502;SDS011;56704;54.242;12.442;2022-12-26T05:08:08;7.00;;;1.93;;
69502;SDS011;56704;54.242;12.442;2022-12-26T05:11:03;10.43;;;1.88;;
69502;SDS011;56704;54.242;12.442;2022-12-26T05:13:29;6.03;;;2.05;;
69502;SDS011;56704;54.242;12.442;2022-12-26T05:15:57;12.27;;;2.53;;
69502;SDS011;56704;54.242;12.442;2022-12-26T05:18:41;10.27;;;2.90;;
69502;SDS011;56704;54.242;12.442;2022-12-26T05:21:25;8.90;;;2.43;;
69502;SDS011;56704;54.242;12.442;2022-12-26T05:24:10;10.82;;;2.53;;
69502;SDS011;56704;54.242;12.442;2022-12-26T05:26:54;10.75;;;2.25;;
69502;SDS011;56704;54.242;12.442;2022-12-26T05:29:38;6.35;;;1.85;;
69502;SDS011;56704;54.242;12.442;2022-12-26T05:32:07;10.43;;;2.47;;
69502;SDS011;56704;54.242;12.442;2022-12-26T05:34:33;10.47;;;3.20;;
69502;SDS011;56704;54.242;12.442;2022-12-26T05:36:59;17.65;;;4.15;;
69502;SDS011;56704;54.242;12.442;2022-12-26T05:39:25;13.95;;;3.22;;
69502;SDS011;56704;54.242;12.442;2022-12-26T05:41:52;23.47;;;3.57;;
69502;SDS011;56704;54.242;12.442;2022-12-26T05:44:19;7.63;;;2.17;;
69502;SDS011;56704;54.242;12.442;2022-12-26T05:46:45;14.90;;;2.83;;
69502;SDS011;56704;54.242;12.442;2022-12-26T05:49:14;8.18;;;1.73;;
69502;SDS011;56704;54.242;12.442;2022-12-26T05:51:41;11.63;;;2.47;;
69502;SDS011;56704;54.242;12.442;2022-12-26T05:54:07;9.23;;;2.97;;
69502;SDS011;56704;54.242;12.442;2022-12-26T05:56:34;16.73;;;3.40;;
69502;SDS011;56704;54.242;12.442;2022-12-26T05:59:01;13.30;;;2.92;;
69502;SDS011;56704;54.242;12.442;2022-12-26T06:01:28;8.50;;;2.15;;
69502;SDS011;56704;54.242;12.442;2022-12-26T06:03:55;8.68;;;2.75;;
69502;SDS011;56704;54.242;12.442;2022-12-26T06:06:25;10.83;;;3.27;;
69502;SDS011;56704;54.242;12.442;2022-12-26T06:08:53;18.40;;;4.07;;
69502;SDS011;56704;54.242;12.442;2022-12-26T06:11:21;13.05;;;3.45;;
69502;SDS011;56704;54.242;12.442;2022-12-26T06:13:50;10.60;;;3.03;;
69502;SDS011;56704;54.242;12.442;2022-12-26T06:16:17;16.30;;;4.07;;
69502;SDS011;56704;54.242;12.442;2022-12-26T06:18:44;17.37;;;4.23;;
69502;SDS011;56704;54.242;12.442;2022-12-26T06:21:12;14.10;;;3.90;;
69502;SDS011;56704;54.242;12.442;2022-12-26T06:23:41;13.38;;;3.28;;
69502;SDS011;56704;54.242;12.442;2022-12-26T06:26:08;6.80;;;2.45;;
69502;SDS011;56704;54.242;12.442;2022-12-26T06:28:36;15.82;;;4.03;;
69502;SDS011;56704;54.242;12.442;2022-12-26T06:31:04;11.33;;;3.17;;
69502;SDS011;56704;54.242;12.442;2022-12-26T06:33:32;16.00;;;3.97;;
69502;SDS011;56704;54.242;12.442;2022-12-26T06:36:03;10.65;;;3.33;;
69502;SDS011;56704;54.242;12.442;2022-12-26T06:38:31;8.75;;;2.38;;
69502;SDS011;56704;54.242;12.442;2022-12-26T06:40:59;10.90;;;4.40;;
69502;SDS011;56704;54.242;12.442;2022-12-26T06:43:26;8.97;;;3.30;;
69502;SDS011;56704;54.242;12.442;2022-12-26T06:45:53;10.05;;;3.95;;
69502;SDS011;56704;54.242;12.442;2022-12-26T06:48:21;12.02;;;3.45;;
69502;SDS011;56704;54.242;12.442;2022-12-26T06:50:47;13.18;;;4.10;;
69502;SDS011;56704;54.242;12.442;2022-12-26T06:53:14;7.47;;;2.60;;
69502;SDS011;56704;54.242;12.442;2022-12-26T06:55:40;12.57;;;3.60;;
69502;SDS011;56704;54.242;12.442;2022-12-26T06:58:08;15.77;;;4.32;;
69502;SDS011;56704;54.242;12.442;2022-12-26T07:00:35;10.50;;;2.95;;
69502;SDS011;56704;54.242;12.442;2022-12-26T07:03:02;8.40;;;3.72;;
69502;SDS011;56704;54.242;12.442;2022-12-26T07:05:29;10.40;;;3.28;;
69502;SDS011;56704;54.242;12.442;2022-12-26T07:07:55;8.47;;;2.57;;
69502;SDS011;56704;54.242;12.442;2022-12-26T07:10:22;15.90;;;4.22;;
69502;SDS011;56704;54.242;12.442;2022-12-26T07:12:49;8.38;;;3.10;;
69502;SDS011;56704;54.242;12.442;2022-12-26T07:15:17;16.50;;;4.63;;
69502;SDS011;56704;54.242;12.442;2022-12-26T07:17:44;9.68;;;3.78;;
69502;SDS011;56704;54.242;12.442;2022-12-26T07:20:11;11.87;;;2.93;;
69502;SDS011;56704;54.242;12.442;2022-12-26T07:22:37;21.80;;;6.15;;
69502;SDS011;56704;54.242;12.442;2022-12-26T07:25:04;25.20;;;6.60;;
69502;SDS011;56704;54.242;12.442;2022-12-26T07:27:31;22.88;;;5.65;;
69502;SDS011;56704;54.242;12.442;2022-12-26T07:29:58;14.60;;;4.50;;
69502;SDS011;56704;54.242;12.442;2022-12-26T07:32:27;20.53;;;5.63;;
69502;SDS011;56704;54.242;12.442;2022-12-26T07:34:53;13.20;;;4.68;;
69502;SDS011;56704;54.242;12.442;2022-12-26T07:37:20;15.13;;;6.80;;
69502;SDS011;56704;54.242;12.442;2022-12-26T07:39:46;14.38;;;6.95;;
69502;SDS011;56704;54.242;12.442;2022-12-26T07:42:13;18.40;;;5.78;;
69502;SDS011;56704;54.242;12.442;2022-12-26T07:44:40;17.57;;;5.43;;
69502;SDS011;56704;54.242;12.442;2022-12-26T07:47:06;13.98;;;4.60;;
69502;SDS011;56704;54.242;12.442;2022-12-26T07:49:35;13.77;;;4.10;;
69502;SDS011;56704;54.242;12.442;2022-12-26T07:52:01;12.43;;;3.97;;
69502;SDS011;56704;54.242;12.442;2022-12-26T07:54:28;14.48;;;5.10;;
69502;SDS011;56704;54.242;12.442;2022-12-26T07:56:56;13.23;;;3.70;;
69502;SDS011;56704;54.242;12.442;2022-12-26T07:59:22;18.52;;;5.13;;
69502;SDS011;56704;54.242;12.442;2022-12-26T08:01:49;20.40;;;6.10;;
69502;SDS011;56704;54.242;12.442;2022-12-26T08:04:16;10.70;;;3.67;;
69502;SDS011;56704;54.242;12.442;2022-12-26T08:06:45;32.45;;;8.18;;
69502;SDS011;56704;54.242;12.442;2022-12-26T08:09:12;21.77;;;6.53;;
69502;SDS011;56704;54.242;12.442;2022-12-26T08:11:40;20.25;;;7.70;;
69502;SDS011;56704;54.242;12.442;2022-12-26T08:14:08;24.80;;;8.10;;
69502;SDS011;56704;54.242;12.442;2022-12-26T08:16:35;11.98;;;3.95;;
69502;SDS011;56704;54.242;12.442;2022-12-26T08:19:02;26.35;;;7.30;;
69502;SDS011;56704;54.242;12.442;2022-12-26T08:21:29;16.33;;;5.70;;
69502;SDS011;56704;54.242;12.442;2022-12-26T08:23:57;17.65;;;6.43;;
69502;SDS011;56704;54.242;12.442;2022-12-26T08:26:23;18.27;;;7.43;;
69502;SDS011;56704;54.242;12.442;2022-12-26T08:28:50;12.95;;;5.15;;
69502;SDS011;56704;54.242;12.442;2022-12-26T08:31:17;25.77;;;7.63;;
69502;SDS011;56704;54.242;12.442;2022-12-26T08:33:45;36.23;;;8.53;;
69502;SDS011;56704;54.242;12.442;2022-12-26T08:36:12;14.23;;;6.28;;
69502;SDS011;56704;54.242;12.442;2022-12-26T08:38:40;16.70;;;7.68;;
69502;SDS011;56704;54.242;12.442;2022-12-26T08:41:09;24.05;;;6.60;;
69502;SDS011;56704;54.242;12.442;2022-12-26T08:43:35;28.05;;;7.03;;
69502;SDS011;56704;54.242;12.442;2022-12-26T08:46:03;18.73;;;5.07;;
69502;SDS011;56704;54.242;12.442;2022-12-26T08:48:31;7.90;;;2.70;;
69502;SDS011;56704;54.242;12.442;2022-12-26T08:50:59;10.45;;;2.85;;
69502;SDS011;56704;54.242;12.442;2022-12-26T08:53:27;22.70;;;6.15;;
69502;SDS011;56704;54.242;12.442;2022-12-26T08:55:56;14.25;;;4.55;;
69502;SDS011;56704;54.242;12.442;2022-12-26T08:58:25;14.30;;;4.73;;
69502;SDS011;56704;54.242;12.442;2022-12-26T09:00:51;24.77;;;6.55;;
69502;SDS011;56704;54.242;12.442;2022-12-26T09:03:18;13.82;;;4.95;;
69502;SDS011;56704;54.242;12.442;2022-12-26T09:05:45;15.18;;;5.57;;
69502;SDS011;56704;54.242;12.442;2022-12-26T09:08:11;20.27;;;6.60;;
69502;SDS011;56704;54.242;12.442;2022-12-26T09:10:38;19.43;;;5.97;;
69502;SDS011;56704;54.242;12.442;2022-12-26T09:13:05;16.55;;;5.03;;
69502;SDS011;56704;54.242;12.442;2022-12-26T09:15:33;16.30;;;5.85;;
69502;SDS011;56704;54.242;12.442;2022-12-26T09:17:59;14.88;;;4.80;;
69502;SDS011;56704;54.242;12.442;2022-12-26T09:20:26;19.35;;;4.93;;
69502;SDS011;56704;54.242;12.442;2022-12-26T09:22:52;24.93;;;6.77;;
69502;SDS011;56704;54.242;12.442;2022-12-26T09:25:20;28.15;;;7.68;;
69502;SDS011;56704;54.242;12.442;2022-12-26T09:27:49;9.50;;;3.85;;
69502;SDS011;56704;54.242;12.442;2022-12-26T09:30:17;20.42;;;6.35;;
69502;SDS011;56704;54.242;12.442;2022-12-26T09:32:46;17.90;;;5.03;;
69502;SDS011;56704;54.242;12.442;2022-12-26T09:35:12;22.40;;;6.70;;
69502;SDS011;56704;54.242;12.442;2022-12-26T09:37:39;21.73;;;5.88;;
69502;SDS011;56704;54.242;12.442;2022-12-26T09:40:06;13.10;;;5.18;;
69502;SDS011;56704;54.242;12.442;2022-12-26T09:42:47;20.88;;;5.78;;
69502;SDS011;56704;54.242;12.442;2022-12-26T09:45:23;17.20;;;3.90;;
69502;SDS011;56704;54.242;12.442;2022-12-26T09:48:00;14.93;;;5.50;;
69502;SDS011;56704;54.242;12.442;2022-12-26T09:50:37;15.40;;;5.50;;
69502;SDS011;56704;54.242;12.442;2022-12-26T09:53:05;15.50;;;6.13;;
69502;SDS011;56704;54.242;12.442;2022-12-26T09:55:36;22.92;;;6.57;;
69502;SDS011;56704;54.242;12.442;2022-12-26T09:58:10;17.42;;;7.63;;
69502;SDS011;56704;54.242;12.442;2022-12-26T10:00:44;20.30;;;5.87;;
69502;SDS011;56704;54.242;12.442;2022-12-26T10:03:17;18.42;;;6.07;;
69502;SDS011;56704;54.242;12.442;2022-12-26T10:05:49;26.75;;;8.38;;
69502;SDS011;56704;54.242;12.442;2022-12-26T10:08:26;18.90;;;8.90;;
69502;SDS011;56704;54.242;12.442;2022-12-26T10:11:03;16.35;;;7.78;;
69502;SDS011;56704;54.242;12.442;2022-12-26T10:13:36;16.73;;;5.77;;
69502;SDS011;56704;54.242;12.442;2022-12-26T10:16:07;15.10;;;4.40;;
69502;SDS011;56704;54.242;12.442;2022-12-26T10:18:39;14.98;;;5.50;;
69502;SDS011;56704;54.242;12.442;2022-12-26T10:21:21;14.98;;;5.82;;
69502;SDS011;56704;54.242;12.442;2022-12-26T10:23:57;13.32;;;6.38;;
69502;SDS011;56704;54.242;12.442;2022-12-26T10:26:28;19.50;;;6.77;;
69502;SDS011;56704;54.242;12.442;2022-12-26T10:28:58;16.67;;;8.20;;
69502;SDS011;56704;54.242;12.442;2022-12-26T10:31:29;15.95;;;7.63;;
69502;SDS011;56704;54.242;12.442;2022-12-26T10:34:03;16.55;;;6.90;;
69502;SDS011;56704;54.242;12.442;2022-12-26T10:36:37;13.73;;;5.93;;
69502;SDS011;56704;54.242;12.442;2022-12-26T10:39:10;14.07;;;4.43;;
69502;SDS011;56704;54.242;12.442;2022-12-26T10:41:44;11.75;;;4.18;;
69502;SDS011;56704;54.242;12.442;2022-12-26T10:44:13;18.10;;;7.15;;
69502;SDS011;56704;54.242;12.442;2022-12-26T10:46:59;19.60;;;9.18;;
69502;SDS011;56704;54.242;12.442;2022-12-26T10:49:35;19.98;;;9.80;;
69502;SDS011;56704;54.242;12.442;2022-12-26T10:52:02;17.43;;;8.53;;
69502;SDS011;56704;54.242;12.442;2022-12-26T10:54:29;13.35;;;5.55;;
69502;SDS011;56704;54.242;12.442;2022-12-26T10:56:56;13.80;;;6.57;;
69502;SDS011;56704;54.242;12.442;2022-12-26T10:59:27;14.95;;;7.13;;
69502;SDS011;56704;54.242;12.442;2022-12-26T11:02:10;15.52;;;7.53;;
69502;SDS011;56704;54.242;12.442;2022-12-26T11:04:42;17.33;;;9.30;;
69502;SDS011;56704;54.242;12.442;2022-12-26T11:07:23;11.15;;;4.47;;
69502;SDS011;56704;54.242;12.442;2022-12-26T11:09:52;10.68;;;4.13;;
69502;SDS011;56704;54.242;12.442;2022-12-26T11:12:23;15.32;;;6.70;;
69502;SDS011;56704;54.242;12.442;2022-12-26T11:14:55;14.40;;;5.57;;
69502;SDS011;56704;54.242;12.442;2022-12-26T11:17:24;12.03;;;6.63;;
69502;SDS011;56704;54.242;12.442;2022-12-26T11:22:46;15.60;;;6.03;;
69502;SDS011;56704;54.242;12.442;2022-12-26T11:25:17;15.70;;;7.88;;
69502;SDS011;56704;54.242;12.442;2022-12-26T11:27:46;19.42;;;9.20;;
69502;SDS011;56704;54.242;12.442;2022-12-26T11:30:22;10.63;;;4.80;;
69502;SDS011;56704;54.242;12.442;2022-12-26T11:33:00;15.82;;;6.90;;
69502;SDS011;56704;54.242;12.442;2022-12-26T11:35:32;14.75;;;7.00;;
69502;SDS011;56704;54.242;12.442;2022-12-26T11:38:02;13.60;;;6.47;;
69502;SDS011;56704;54.242;12.442;2022-12-26T11:40:32;11.18;;;4.97;;
69502;SDS011;56704;54.242;12.442;2022-12-26T11:43:02;10.73;;;4.60;;
69502;SDS011;56704;54.242;12.442;2022-12-26T11:45:31;14.02;;;4.63;;
69502;SDS011;56704;54.242;12.442;2022-12-26T11:48:07;15.73;;;5.60;;
69502;SDS011;56704;54.242;12.442;2022-12-26T11:50:45;17.30;;;8.20;;
69502;SDS011;56704;54.242;12.442;2022-12-26T11:53:14;13.15;;;5.20;;
69502;SDS011;56704;54.242;12.442;2022-12-26T11:55:42;11.33;;;5.07;;
69502;SDS011;56704;54.242;12.442;2022-12-26T11:58:14;12.73;;;5.97;;
69502;SDS011;56704;54.242;12.442;2022-12-26T12:03:30;11.63;;;5.18;;
69502;SDS011;56704;54.242;12.442;2022-12-26T12:06:00;14.57;;;6.53;;
69502;SDS011;56704;54.242;12.442;2022-12-26T12:08:33;16.57;;;8.13;;
69502;SDS011;56704;54.242;12.442;2022-12-26T12:11:12;17.65;;;7.53;;
69502;SDS011;56704;54.242;12.442;2022-12-26T12:13:57;14.10;;;5.80;;
69502;SDS011;56704;54.242;12.442;2022-12-26T12:19:25;12.48;;;4.68;;
69502;SDS011;56704;54.242;12.442;2022-12-26T12:22:05;12.67;;;6.27;;
69502;SDS011;56704;54.242;12.442;2022-12-26T12:24:54;10.02;;;2.97;;
69502;SDS011;56704;54.242;12.442;2022-12-26T12:27:40;15.20;;;7.43;;
69502;SDS011;56704;54.242;12.442;2022-12-26T12:30:14;15.55;;;5.88;;
69502;SDS011;56704;54.242;12.442;2022-12-26T12:32:52;12.80;;;6.05;;
69502;SDS011;56704;54.242;12.442;2022-12-26T12:35:33;14.47;;;5.37;;
69502;SDS011;56704;54.242;12.442;2022-12-26T12:38:20;12.27;;;5.80;;
69502;SDS011;56704;54.242;12.442;2022-12-26T12:40:55;12.30;;;4.90;;
69502;SDS011;56704;54.242;12.442;2022-12-26T12:43:30;13.05;;;5.85;;
69502;SDS011;56704;54.242;12.442;2022-12-26T12:46:08;13.05;;;5.40;;
69502;SDS011;56704;54.242;12.442;2022-12-26T12:48:46;15.23;;;7.50;;
69502;SDS011;56704;54.242;12.442;2022-12-26T12:51:22;9.15;;;3.38;;
69502;SDS011;56704;54.242;12.442;2022-12-26T12:53:58;13.60;;;5.15;;
69502;SDS011;56704;54.242;12.442;2022-12-26T12:56:38;12.32;;;5.93;;
69502;SDS011;56704;54.242;12.442;2022-12-26T12:59:15;12.57;;;5.95;;
69502;SDS011;56704;54.242;12.442;2022-12-26T13:01:50;12.50;;;4.33;;
69502;SDS011;56704;54.242;12.442;2022-12-26T13:04:22;14.82;;;5.20;;
69502;SDS011;56704;54.242;12.442;2022-12-26T13:06:55;9.02;;;4.85;;
69502;SDS011;56704;54.242;12.442;2022-12-26T13:09:27;11.40;;;4.97;;
69502;SDS011;56704;54.242;12.442;2022-12-26T13:11:59;9.77;;;4.13;;
69502;SDS011;56704;54.242;12.442;2022-12-26T13:14:29;11.77;;;5.83;;
69502;SDS011;56704;54.242;12.442;2022-12-26T13:17:01;9.75;;;3.40;;
69502;SDS011;56704;54.242;12.442;2022-12-26T13:19:32;13.45;;;5.07;;
69502;SDS011;56704;54.242;12.442;2022-12-26T13:22:03;12.38;;;6.57;;
69502;SDS011;56704;54.242;12.442;2022-12-26T13:24:39;11.50;;;5.20;;
69502;SDS011;56704;54.242;12.442;2022-12-26T13:27:10;11.13;;;4.53;;
69502;SDS011;56704;54.242;12.442;2022-12-26T13:29:42;8.32;;;3.47;;
69502;SDS011;56704;54.242;12.442;2022-12-26T13:32:14;8.98;;;3.90;;
69502;SDS011;56704;54.242;12.442;2022-12-26T13:34:43;13.07;;;6.28;;
69502;SDS011;56704;54.242;12.442;2022-12-26T13:40:14;12.67;;;5.70;;
69502;SDS011;56704;54.242;12.442;2022-12-26T13:42:43;10.07;;;3.97;;
69502;SDS011;56704;54.242;12.442;2022-12-26T13:54:18;10.90;;;4.53;;
69502;SDS011;56704;54.242;12.442;2022-12-26T13:57:08;11.52;;;5.15;;
69502;SDS011;56704;54.242;12.442;2022-12-26T13:59:51;11.85;;;5.20;;
69502;SDS011;56704;54.242;12.442;2022-12-26T14:02:39;16.35;;;6.60;;
69502;SDS011;56704;54.242;12.442;2022-12-26T14:05:19;9.68;;;4.15;;
69502;SDS011;56704;54.242;12.442;2022-12-26T14:07:52;15.67;;;6.57;;
69502;SDS011;56704;54.242;12.442;2022-12-26T14:10:25;12.85;;;5.00;;
69502;SDS011;56704;54.242;12.442;2022-12-26T14:13:04;14.60;;;6.20;;
69502;SDS011;56704;54.242;12.442;2022-12-26T14:15:50;10.02;;;3.60;;
69502;SDS011;56704;54.242;12.442;2022-12-26T14:18:26;15.32;;;6.28;;
69502;SDS011;56704;54.242;12.442;2022-12-26T14:21:19;18.47;;;10.03;;
69502;SDS011;56704;54.242;12.442;2022-12-26T14:23:56;14.77;;;5.82;;
69502;SDS011;56704;54.242;12.442;2022-12-26T14:26:32;12.93;;;4.30;;
69502;SDS011;56704;54.242;12.442;2022-12-26T14:29:10;15.35;;;4.88;;
69502;SDS011;56704;54.242;12.442;2022-12-26T14:31:57;14.18;;;5.07;;
69502;SDS011;56704;54.242;12.442;2022-12-26T14:34:42;12.63;;;4.83;;
69502;SDS011;56704;54.242;12.442;2022-12-26T14:37:17;13.43;;;5.97;;
69502;SDS011;56704;54.242;12.442;2022-12-26T14:39:53;13.05;;;6.47;;
69502;SDS011;56704;54.242;12.442;2022-12-26T14:42:29;13.98;;;6.47;;
69502;SDS011;56704;54.242;12.442;2022-12-26T15:12:18;7.13;;;2.72;;
69502;SDS011;56704;54.242;12.442;2022-12-26T15:15:11;8.18;;;3.25;;
69502;SDS011;56704;54.242;12.442;2022-12-26T15:17:56;9.20;;;4.40;;
69502;SDS011;56704;54.242;12.442;2022-12-26T15:23:59;9.45;;;5.00;;
69502;SDS011;56704;54.242;12.442;2022-12-26T15:27:04;8.48;;;4.22;;
69502;SDS011;56704;54.242;12.442;2022-12-26T15:29:55;7.07;;;2.83;;
69502;SDS011;56704;54.242;12.442;2022-12-26T15:32:45;6.67;;;3.30;;
69502;SDS011;56704;54.242;12.442;2022-12-26T15:35:20;9.55;;;3.20;;
69502;SDS011;56704;54.242;12.442;2022-12-26T15:38:01;5.82;;;2.78;;
69502;SDS011;56704;54.242;12.442;2022-12-26T15:41:10;6.28;;;1.80;;
69502;SDS011;56704;54.242;12.442;2022-12-26T15:43:45;3.78;;;0.80;;
69502;SDS011;56704;54.242;12.442;2022-12-26T15:46:22;5.63;;;0.90;;
69502;SDS011;56704;54.242;12.442;2022-12-26T15:49:02;3.08;;;0.70;;
69502;SDS011;56704;54.242;12.442;2022-12-26T15:51:46;1.92;;;0.40;;
69502;SDS011;56704;54.242;12.442;2022-12-26T15:54:24;3.00;;;0.30;;
69502;SDS011;56704;54.242;12.442;2022-12-26T15:57:09;2.88;;;0.30;;